Time,TemperatureF,DewpointF,PressureIn,WindDirection,WindDirectionDegrees,WindSpeedMPH,WindSpeedGustMPH,Humidity,HourlyPrecipIn,Conditions,Clouds,dailyrainin,SoftwareType,DateUTC
2013-05-05 00:07:00,51.3,40.0,29.43,East,92,0.0,0.0,65,0.00,,,0.00,weatherlink.com 1.10,2013-05-05 04:07:00,
2013-05-05 00:22:00,51.4,39.0,29.43,East,91,0.0,0.0,64,0.00,,,0.00,weatherlink.com 1.10,2013-05-05 04:22:00,
2013-05-05 00:37:00,51.8,41.0,29.43,SSE,159,0.0,0.0,67,0.00,,,0.00,weatherlink.com 1.10,2013-05-05 04:37:00,
2013-05-05 00:52:00,52.1,43.0,29.43,ENE,58,0.0,0.0,70,0.00,,,0.00,weatherlink.com 1.10,2013-05-05 04:52:00,
2013-05-05 01:07:00,51.6,44.0,29.43,ENE,74,0.0,0.0,74,0.00,,,0.00,weatherlink.com 1.10,2013-05-05 05:07:00,
2013-05-05 01:22:00,50.8,44.0,29.43,ENE,74,0.0,0.0,76,0.00,,,0.00,weatherlink.com 1.10,2013-05-05 05:22:00,
2013-05-05 01:37:00,50.3,44.0,29.43,ENE,74,0.0,0.0,79,0.00,,,0.00,weatherlink.com 1.10,2013-05-05 05:37:00,
2013-05-05 01:52:00,49.9,45.0,29.43,ENE,74,0.0,0.0,82,0.00,,,0.00,weatherlink.com 1.10,2013-05-05 05:52:00,
2013-05-05 02:07:00,49.5,45.0,29.42,ENE,74,0.0,0.0,85,0.00,,,0.00,weatherlink.com 1.10,2013-05-05 06:07:00,
2013-05-05 02:22:00,48.8,45.0,29.42,ENE,74,0.0,0.0,87,0.00,,,0.00,weatherlink.com 1.10,2013-05-05 06:22:00,
2013-05-05 02:37:00,49.7,46.0,29.42,ENE,71,0.0,1.0,88,0.00,,,0.00,weatherlink.com 1.10,2013-05-05 06:37:00,
2013-05-05 02:52:00,51.1,47.0,29.41,ENE,75,0.0,3.0,85,0.00,,,0.00,weatherlink.com 1.10,2013-05-05 06:52:00,
2013-05-05 03:07:00,50.9,46.0,29.41,NE,51,1.0,3.0,82,0.00,,,0.00,weatherlink.com 1.10,2013-05-05 07:07:00,
2013-05-05 03:22:00,50.1,45.0,29.41,ENE,57,0.0,1.0,81,0.00,,,0.00,weatherlink.com 1.10,2013-05-05 07:22:00,
2013-05-05 03:37:00,49.3,44.0,29.41,NE,56,0.0,0.0,83,0.00,,,0.00,weatherlink.com 1.10,2013-05-05 07:37:00,
2013-05-05 03:52:00,48.7,43.0,29.41,ENE,57,0.0,0.0,81,0.00,,,0.00,weatherlink.com 1.10,2013-05-05 07:52:00,
2013-05-05 04:07:00,49.3,43.0,29.41,ENE,57,0.0,0.0,78,0.00,,,0.00,weatherlink.com 1.10,2013-05-05 08:07:00,
2013-05-05 04:23:00,49.6,42.0,29.41,NNE,32,0.0,2.0,76,0.00,,,0.00,weatherlink.com 1.10,2013-05-05 08:23:00,
2013-05-05 04:37:00,49.7,42.0,29.41,NE,51,0.0,2.0,76,0.00,,,0.00,weatherlink.com 1.10,2013-05-05 08:37:00,
2013-05-05 04:52:00,49.5,43.0,29.41,NNE,22,0.0,3.0,77,0.00,,,0.00,weatherlink.com 1.10,2013-05-05 08:52:00,
2013-05-05 05:07:00,49.8,43.0,29.40,ENE,61,2.0,2.0,77,0.00,,,0.00,weatherlink.com 1.10,2013-05-05 09:07:00,
2013-05-05 05:22:00,50.0,43.0,29.41,NNE,26,0.0,4.0,78,0.00,,,0.00,weatherlink.com 1.10,2013-05-05 09:22:00,
2013-05-05 05:37:00,50.9,44.0,29.41,NNE,23,5.0,7.0,77,0.00,,,0.00,weatherlink.com 1.10,2013-05-05 09:37:00,
2013-05-05 05:52:00,51.0,44.0,29.41,South,188,1.0,6.0,77,0.00,,,0.00,weatherlink.com 1.10,2013-05-05 09:52:00,
2013-05-05 06:07:00,51.1,43.0,29.41,SSE,163,0.0,4.0,75,0.00,,,0.00,weatherlink.com 1.10,2013-05-05 10:07:00,
2013-05-05 06:22:00,51.0,43.0,29.41,NE,40,0.0,3.0,75,0.00,,,0.00,weatherlink.com 1.10,2013-05-05 10:22:00,
2013-05-05 06:38:00,50.6,44.0,29.41,East,83,1.0,1.0,78,0.00,,,0.00,weatherlink.com 1.10,2013-05-05 10:38:00,
2013-05-05 06:53:00,50.3,44.0,29.42,NE,41,0.0,3.0,80,0.00,,,0.00,weatherlink.com 1.10,2013-05-05 10:53:00,
2013-05-05 07:08:00,50.8,45.0,29.42,NE,41,0.0,0.0,79,0.00,,,0.00,weatherlink.com 1.10,2013-05-05 11:08:00,
2013-05-05 07:23:00,52.4,45.0,29.43,NE,41,0.0,1.0,76,0.00,,,0.00,weatherlink.com 1.10,2013-05-05 11:23:00,
2013-05-05 07:38:00,55.1,44.0,29.43,NE,55,0.0,1.0,67,0.00,,,0.00,weatherlink.com 1.10,2013-05-05 11:38:00,
2013-05-05 07:53:00,56.7,44.0,29.43,ENE,59,1.0,2.0,63,0.00,,,0.00,weatherlink.com 1.10,2013-05-05 11:53:00,
2013-05-05 08:08:00,57.9,43.0,29.43,SSE,155,0.0,3.0,59,0.00,,,0.00,weatherlink.com 1.10,2013-05-05 12:08:00,
2013-05-05 08:23:00,59.4,44.0,29.43,SE,131,0.0,2.0,57,0.00,,,0.00,weatherlink.com 1.10,2013-05-05 12:23:00,
2013-05-05 08:38:00,60.4,44.0,29.42,SSE,155,0.0,4.0,55,0.00,,,0.00,weatherlink.com 1.10,2013-05-05 12:38:00,
2013-05-05 08:53:00,61.6,44.0,29.43,ENE,63,3.0,4.0,53,0.00,,,0.00,weatherlink.com 1.10,2013-05-05 12:53:00,
2013-05-05 09:08:00,62.2,45.0,29.43,ESE,104,0.0,3.0,53,0.00,,,0.00,weatherlink.com 1.10,2013-05-05 13:08:00,
2013-05-05 09:23:00,62.9,44.0,29.43,ESE,119,0.0,7.0,51,0.00,,,0.00,weatherlink.com 1.10,2013-05-05 13:23:00,
2013-05-05 09:38:00,64.9,45.0,29.43,SSE,153,0.0,3.0,49,0.00,,,0.00,weatherlink.com 1.10,2013-05-05 13:38:00,
2013-05-05 09:53:00,67.1,45.0,29.43,East,81,3.0,7.0,46,0.00,,,0.00,weatherlink.com 1.10,2013-05-05 13:53:00,
2013-05-05 10:08:00,67.7,45.0,29.43,SE,142,0.0,4.0,44,0.00,,,0.00,weatherlink.com 1.10,2013-05-05 14:08:00,
2013-05-05 10:23:00,67.8,46.0,29.42,South,170,1.0,4.0,45,0.00,,,0.00,weatherlink.com 1.10,2013-05-05 14:23:00,
2013-05-05 10:38:00,70.3,45.0,29.42,NE,54,6.0,7.0,41,0.00,,,0.00,weatherlink.com 1.10,2013-05-05 14:38:00,
2013-05-05 10:53:00,69.7,45.0,29.42,SE,126,3.0,7.0,42,0.00,,,0.00,weatherlink.com 1.10,2013-05-05 14:53:00,
2013-05-05 11:08:00,69.5,46.0,29.42,ENE,75,1.0,8.0,43,0.00,,,0.00,weatherlink.com 1.10,2013-05-05 15:08:00,
2013-05-05 11:23:00,70.5,45.0,29.42,SE,124,4.0,8.0,40,0.00,,,0.00,weatherlink.com 1.10,2013-05-05 15:23:00,
2013-05-05 11:38:00,72.3,47.0,29.42,ENE,64,6.0,6.0,40,0.00,,,0.00,weatherlink.com 1.10,2013-05-05 15:38:00,
2013-05-05 11:53:00,72.5,45.0,29.42,SE,142,2.0,5.0,38,0.00,,,0.00,weatherlink.com 1.10,2013-05-05 15:53:00,
2013-05-05 12:08:00,71.4,46.0,29.41,NNE,33,2.0,8.0,40,0.00,,,0.00,weatherlink.com 1.10,2013-05-05 16:08:00,
2013-05-05 12:23:00,72.3,45.0,29.41,WNW,282,1.0,11.0,38,0.00,,,0.00,weatherlink.com 1.10,2013-05-05 16:23:00,
2013-05-05 12:38:00,72.5,44.0,29.41,East,94,2.0,10.0,36,0.00,,,0.00,weatherlink.com 1.10,2013-05-05 16:38:00,
2013-05-05 12:54:00,73.4,44.0,29.41,ESE,122,4.0,8.0,35,0.00,,,0.00,weatherlink.com 1.10,2013-05-05 16:54:00,
2013-05-05 13:09:00,75.1,43.0,29.41,SSE,152,0.0,8.0,32,0.00,,,0.00,weatherlink.com 1.10,2013-05-05 17:09:00,
2013-05-05 13:24:00,73.7,44.0,29.41,SE,128,2.0,6.0,34,0.00,,,0.00,weatherlink.com 1.10,2013-05-05 17:24:00,
2013-05-05 13:39:00,74.7,47.0,29.40,NE,50,2.0,10.0,37,0.00,,,0.00,weatherlink.com 1.10,2013-05-05 17:39:00,
2013-05-05 13:54:00,73.9,47.0,29.40,NE,54,8.0,11.0,39,0.00,,,0.00,weatherlink.com 1.10,2013-05-05 17:54:00,
2013-05-05 14:09:00,73.1,47.0,29.39,NNW,330,4.0,12.0,39,0.00,,,0.00,weatherlink.com 1.10,2013-05-05 18:09:00,
2013-05-05 14:24:00,74.7,46.0,29.39,ESE,109,5.0,11.0,36,0.00,,,0.00,weatherlink.com 1.10,2013-05-05 18:24:00,
2013-05-05 14:39:00,73.7,44.0,29.39,East,88,6.0,16.0,35,0.00,,,0.00,weatherlink.com 1.10,2013-05-05 18:39:00,
2013-05-05 14:54:00,74.9,44.0,29.39,NE,50,2.0,10.0,33,0.00,,,0.00,weatherlink.com 1.10,2013-05-05 18:54:00,
2013-05-05 15:09:00,74.2,42.0,29.39,ESE,122,3.0,11.0,32,0.00,,,0.00,weatherlink.com 1.10,2013-05-05 19:09:00,
2013-05-05 15:24:00,74.0,42.0,29.38,SE,126,3.0,9.0,32,0.00,,,0.00,weatherlink.com 1.10,2013-05-05 19:24:00,
2013-05-05 15:39:00,74.0,41.0,29.38,NE,44,2.0,11.0,30,0.00,,,0.00,weatherlink.com 1.10,2013-05-05 19:39:00,
2013-05-05 15:54:00,74.9,41.0,29.37,ESE,105,3.0,14.0,29,0.00,,,0.00,weatherlink.com 1.10,2013-05-05 19:54:00,
2013-05-05 16:09:00,74.7,40.0,29.36,NE,45,2.0,9.0,29,0.00,,,0.00,weatherlink.com 1.10,2013-05-05 20:09:00,
2013-05-05 16:24:00,74.8,40.0,29.36,NE,51,6.0,10.0,28,0.00,,,0.00,weatherlink.com 1.10,2013-05-05 20:24:00,
2013-05-05 16:39:00,75.3,42.0,29.36,East,93,3.0,10.0,30,0.00,,,0.00,weatherlink.com 1.10,2013-05-05 20:39:00,
2013-05-05 16:54:00,74.8,41.0,29.36,NNE,30,4.0,11.0,30,0.00,,,0.00,weatherlink.com 1.10,2013-05-05 20:54:00,
2013-05-05 17:09:00,74.4,41.0,29.36,NE,50,7.0,12.0,30,0.00,,,0.00,weatherlink.com 1.10,2013-05-05 21:09:00,
2013-05-05 17:24:00,73.5,41.0,29.36,ENE,63,6.0,15.0,31,0.00,,,0.00,weatherlink.com 1.10,2013-05-05 21:24:00,
2013-05-05 17:39:00,72.8,41.0,29.36,NE,39,7.0,11.0,32,0.00,,,0.00,weatherlink.com 1.10,2013-05-05 21:39:00,
2013-05-05 17:54:00,72.3,41.0,29.35,North,353,4.0,11.0,32,0.00,,,0.00,weatherlink.com 1.10,2013-05-05 21:54:00,
2013-05-05 18:09:00,71.3,41.0,29.35,ENE,70,6.0,12.0,33,0.00,,,0.00,weatherlink.com 1.10,2013-05-05 22:09:00,
2013-05-05 18:24:00,71.1,40.0,29.35,NNW,331,6.0,11.0,32,0.00,,,0.00,weatherlink.com 1.10,2013-05-05 22:24:00,
2013-05-05 18:39:00,71.7,39.0,29.35,ENE,61,6.0,9.0,31,0.00,,,0.00,weatherlink.com 1.10,2013-05-05 22:39:00,
2013-05-05 18:54:00,71.8,40.0,29.35,East,88,1.0,7.0,32,0.00,,,0.00,weatherlink.com 1.10,2013-05-05 22:54:00,
2013-05-05 19:09:00,71.0,41.0,29.35,East,89,3.0,9.0,34,0.00,,,0.00,weatherlink.com 1.10,2013-05-05 23:09:00,
2013-05-05 19:24:00,70.0,43.0,29.35,ESE,119,3.0,7.0,38,0.00,,,0.00,weatherlink.com 1.10,2013-05-05 23:24:00,
2013-05-05 19:39:00,69.0,45.0,29.35,East,93,1.0,3.0,42,0.00,,,0.00,weatherlink.com 1.10,2013-05-05 23:39:00,
2013-05-05 19:54:00,67.8,46.0,29.35,ENE,68,0.0,3.0,46,0.00,,,0.00,weatherlink.com 1.10,2013-05-05 23:54:00,
2013-05-05 20:09:00,66.7,46.0,29.35,ENE,70,1.0,3.0,47,0.00,,,0.00,weatherlink.com 1.10,2013-05-06 00:09:00,
2013-05-05 20:24:00,65.8,46.0,29.35,ENE,57,2.0,3.0,49,0.00,,,0.00,weatherlink.com 1.10,2013-05-06 00:24:00,
2013-05-05 20:39:00,64.5,46.0,29.35,ENE,70,0.0,3.0,52,0.00,,,0.00,weatherlink.com 1.10,2013-05-06 00:39:00,
2013-05-05 20:54:00,63.2,47.0,29.36,ENE,77,1.0,3.0,55,0.00,,,0.00,weatherlink.com 1.10,2013-05-06 00:54:00,
2013-05-05 21:09:00,62.0,47.0,29.36,NNE,27,2.0,3.0,58,0.00,,,0.00,weatherlink.com 1.10,2013-05-06 01:09:00,
2013-05-05 21:24:00,60.9,48.0,29.36,East,91,1.0,3.0,63,0.00,,,0.00,weatherlink.com 1.10,2013-05-06 01:24:00,
2013-05-05 21:39:00,59.7,49.0,29.37,ENE,70,0.0,5.0,69,0.00,,,0.00,weatherlink.com 1.10,2013-05-06 01:39:00,
2013-05-05 21:54:00,58.7,50.0,29.37,NE,50,3.0,3.0,72,0.00,,,0.00,weatherlink.com 1.10,2013-05-06 01:54:00,
2013-05-05 22:09:00,57.8,50.0,29.38,NNE,33,3.0,5.0,74,0.00,,,0.00,weatherlink.com 1.10,2013-05-06 02:09:00,
2013-05-05 22:24:00,56.8,49.0,29.38,NE,56,2.0,3.0,76,0.00,,,0.00,weatherlink.com 1.10,2013-05-06 02:24:00,
2013-05-05 22:39:00,56.1,49.0,29.38,ENE,70,1.0,2.0,78,0.00,,,0.00,weatherlink.com 1.10,2013-05-06 02:39:00,
2013-05-05 22:54:00,55.9,50.0,29.38,East,81,2.0,4.0,79,0.00,,,0.00,weatherlink.com 1.10,2013-05-06 02:54:00,
2013-05-05 23:09:00,56.9,47.0,29.38,East,81,2.0,4.0,70,0.00,,,0.00,weatherlink.com 1.10,2013-05-06 03:09:00,
2013-05-05 23:24:00,56.8,46.0,29.38,East,86,0.0,2.0,68,0.00,,,0.00,weatherlink.com 1.10,2013-05-06 03:24:00,
2013-05-05 23:39:00,55.6,46.0,29.38,East,86,0.0,0.0,69,0.00,,,0.00,weatherlink.com 1.10,2013-05-06 03:39:00,
2013-05-05 23:54:00,54.4,46.0,29.38,East,87,0.0,0.0,73,0.00,,,0.00,weatherlink.com 1.10,2013-05-06 03:54:00,